Time;durP1;ratioP1;P1;durP2;ratioP2;P2;SDS_P1;SDS_P2;PMS_P1;PMS_P2;Temp;Humidity;BMP_temperature;BMP_pressure;BME280_temperature;BME280_humidity;BME280_pressure;Samples;Min_cycle;Max_cycle;Signal;HPM_P1;HPM_P2
2022/11/04 00:01:23;;;;;;;9.37;3.90;;;;;;;10.44;95.33;99932.22;4993414;28;20809;-69
2022/11/04 00:03:50;;;;;;;10.83;3.80;;;;;;;10.44;95.49;99929.53;4993585;28;20465;-68
2022/11/04 00:06:16;;;;;;;11.97;4.47;;;;;;;10.44;95.58;99939.56;4992077;28;20485;-69
2022/11/04 00:08:43;;;;;;;19.30;4.53;;;;;;;10.45;95.46;99944.69;4993924;28;20460;-68
2022/11/04 00:13:57;;;;;;;15.03;4.10;;;;;;;10.57;95.47;99933.22;4988372;28;20479;-69
2022/11/04 00:19:08;;;;;;;9.97;4.00;;;;;;;10.49;94.11;99928.56;4993400;28;20460;-69
2022/11/04 00:29:57;;;;;;;8.93;3.80;;;;;;;10.27;93.22;99930.31;4992055;28;20532;-69
2022/11/04 00:35:13;;;;;;;9.37;4.73;;;;;;;10.27;95.41;99916.78;4992545;28;20580;-69
2022/11/04 00:37:41;;;;;;;9.93;4.13;;;;;;;10.26;96.00;99912.44;4992736;28;20457;-69
2022/11/04 00:40:10;;;;;;;15.70;4.53;;;;;;;10.30;96.30;99908.00;4996419;28;20448;-69
2022/11/04 00:42:37;;;;;;;7.97;3.50;;;;;;;10.30;96.28;99912.63;4998119;28;20471;-69
2022/11/04 00:45:06;;;;;;;8.37;3.70;;;;;;;10.22;95.30;99908.75;4996946;28;20451;-69
2022/11/04 00:47:33;;;;;;;12.00;4.80;;;;;;;10.24;94.40;99909.28;4996470;28;20484;-69
2022/11/04 00:49:59;;;;;;;8.73;4.13;;;;;;;10.25;94.50;99910.06;4996647;28;20452;-68
2022/11/04 00:52:26;;;;;;;17.27;4.63;;;;;;;10.20;95.35;99912.91;4997673;28;20531;-69
2022/11/04 00:54:52;;;;;;;8.57;4.00;;;;;;;10.17;95.99;99906.19;4996753;28;20441;-69
2022/11/04 00:57:19;;;;;;;9.47;4.17;;;;;;;10.17;96.30;99898.06;4995915;28;20456;-68
2022/11/04 00:59:46;;;;;;;12.50;4.23;;;;;;;10.20;96.71;99893.97;4995888;28;20441;-68
2022/11/04 01:02:13;;;;;;;7.90;3.70;;;;;;;10.19;96.85;99892.38;4997042;28;20978;-68
2022/11/04 01:04:40;;;;;;;11.43;5.10;;;;;;;10.19;96.88;99890.47;4996282;28;20472;-69
2022/11/04 01:07:07;;;;;;;10.37;5.57;;;;;;;10.13;97.20;99883.59;4995827;28;20490;-68
2022/11/04 01:09:33;;;;;;;9.23;4.10;;;;;;;10.14;97.32;99887.06;4996350;28;20464;-68
2022/11/04 01:12:00;;;;;;;8.83;4.70;;;;;;;10.14;97.09;99879.78;4997767;28;20555;-69
2022/11/04 01:14:26;;;;;;;13.53;4.73;;;;;;;10.10;97.21;99881.53;4976727;28;20474;-68
2022/11/04 01:16:53;;;;;;;12.10;4.70;;;;;;;10.08;97.61;99884.53;4993378;28;20461;-69
2022/11/04 01:19:21;;;;;;;7.77;3.60;;;;;;;10.11;97.49;99875.00;4995449;28;20835;-69
2022/11/04 01:21:50;;;;;;;9.73;4.20;;;;;;;10.10;97.39;99873.41;4995923;28;20830;-69
2022/11/04 01:24:17;;;;;;;15.77;4.70;;;;;;;10.05;98.26;99877.06;4997837;28;20472;-69
2022/11/04 01:26:43;;;;;;;6.40;3.30;;;;;;;10.06;97.76;99881.34;4996305;28;20481;-69
2022/11/04 01:29:10;;;;;;;10.07;4.50;;;;;;;10.03;97.89;99887.38;4995222;28;20453;-68
2022/11/04 01:31:36;;;;;;;16.13;5.00;;;;;;;10.04;97.04;99875.44;4996093;28;20441;-69
2022/11/04 01:34:03;;;;;;;8.47;4.50;;;;;;;9.96;96.34;99880.81;4996875;28;20587;-68
2022/11/04 01:36:31;;;;;;;11.70;4.90;;;;;;;9.94;95.57;99880.34;4995877;28;20453;-68
2022/11/04 01:38:57;;;;;;;8.93;4.83;;;;;;;9.80;95.38;99878.56;4995091;28;20449;-69
2022/11/04 01:41:26;;;;;;;10.03;4.50;;;;;;;9.76;95.46;99884.91;4995525;28;20967;-69
2022/11/04 01:43:55;;;;;;;8.60;4.23;;;;;;;9.79;96.12;99879.69;4994843;28;20531;-68
2022/11/04 01:46:28;;;;;;;11.23;4.80;;;;;;;9.81;97.79;99871.25;4994632;28;20453;-69
2022/11/04 01:48:58;;;;;;;14.00;4.80;;;;;;;9.84;99.52;99871.41;4995661;28;20560;-69
2022/11/04 01:51:26;;;;;;;14.70;4.60;;;;;;;9.92;99.75;99877.97;4993948;28;20795;-69
2022/11/04 01:53:56;;;;;;;10.47;4.60;;;;;;;9.93;100.00;99884.97;4995038;28;20484;-69
2022/11/04 01:56:25;;;;;;;10.40;4.13;;;;;;;10.02;100.00;99882.28;4994906;28;20457;-69
2022/11/04 01:58:56;;;;;;;20.93;5.37;;;;;;;10.07;100.00;99871.31;4993184;28;20836;-69
2022/11/04 02:01:23;;;;;;;8.77;3.60;;;;;;;10.14;99.95;99874.38;4994854;28;20441;-69
2022/11/04 02:03:53;;;;;;;13.00;5.40;;;;;;;10.18;99.59;99863.69;4995244;28;20479;-69
2022/11/04 02:06:21;;;;;;;7.63;4.17;;;;;;;10.18;100.00;99856.41;4994270;28;20833;-69
2022/11/04 02:08:48;;;;;;;10.90;4.73;;;;;;;10.22;99.47;99859.25;4995193;28;20469;-69
2022/11/04 02:13:57;;;;;;;11.57;4.50;;;;;;;10.22;99.34;99857.31;4975902;28;20858;-69
2022/11/04 02:16:36;;;;;;;12.17;5.17;;;;;;;10.25;99.05;99856.72;4989195;28;20460;-70
2022/11/04 02:19:19;;;;;;;11.40;4.87;;;;;;;10.25;99.17;99854.03;4995174;28;20539;-68
2022/11/04 02:22:17;;;;;;;30.03;5.33;;;;;;;10.26;98.40;99854.81;4994354;28;20453;-68
2022/11/04 02:25:05;;;;;;;10.90;5.03;;;;;;;10.14;97.29;99844.59;4994373;28;20465;-69
2022/11/04 02:27:44;;;;;;;9.27;4.70;;;;;;;10.08;96.86;99843.16;4992657;28;20483;-68
2022/11/04 02:30:15;;;;;;;11.17;5.53;;;;;;;10.04;96.04;99847.59;4993848;28;20457;-68
2022/11/04 02:32:59;;;;;;;11.37;5.00;;;;;;;9.92;96.04;99850.13;4995109;28;20571;-69
2022/11/04 02:35:37;;;;;;;13.63;5.10;;;;;;;9.91;96.78;99846.59;4994114;28;20449;-68
2022/11/04 02:38:12;;;;;;;10.47;5.07;;;;;;;9.93;98.15;99840.91;4994843;28;20444;-68
2022/11/04 02:40:43;;;;;;;9.47;5.27;;;;;;;10.01;98.04;99829.31;4993014;28;20812;-68
2022/11/04 02:43:16;;;;;;;9.90;4.23;;;;;;;9.97;99.38;99817.53;4995539;28;20476;-68
2022/11/04 02:45:47;;;;;;;11.83;4.57;;;;;;;9.97;99.47;99817.53;4994772;28;20433;-69
2022/11/04 02:48:21;;;;;;;14.30;5.70;;;;;;;9.99;99.84;99823.41;4993525;28;20491;-69
2022/11/04 02:50:54;;;;;;;11.03;5.13;;;;;;;10.07;99.20;99803.69;4994681;28;20437;-69
2022/11/04 02:53:26;;;;;;;13.83;4.80;;;;;;;10.12;99.39;99806.22;4996478;28;20476;-69
2022/11/04 02:55:57;;;;;;;9.60;5.20;;;;;;;10.11;99.60;99807.34;4993977;28;20457;-70
2022/11/04 02:58:28;;;;;;;15.53;5.47;;;;;;;10.12;99.68;99827.88;4974903;28;20442;-69
2022/11/04 03:00:59;;;;;;;14.87;4.33;;;;;;;10.15;99.53;99832.66;4975054;28;20453;-69
2022/11/04 03:03:28;;;;;;;11.27;4.80;;;;;;;10.13;99.83;99820.53;4974995;28;20874;-68
2022/11/04 03:05:58;;;;;;;14.13;5.40;;;;;;;10.14;100.00;99822.13;4974760;28;20452;-69
2022/11/04 03:08:29;;;;;;;9.63;5.00;;;;;;;10.16;100.00;99812.59;4996733;28;20495;-68
2022/11/04 03:11:02;;;;;;;10.90;5.30;;;;;;;10.24;100.00;99813.72;4992869;28;20471;-69
2022/11/04 03:13:36;;;;;;;8.13;3.47;;;;;;;10.31;100.00;99809.47;4993588;28;20556;-69
2022/11/04 03:16:09;;;;;;;10.40;5.13;;;;;;;10.32;99.98;99807.56;4993576;28;20508;-69
2022/11/04 03:18:41;;;;;;;9.40;4.87;;;;;;;10.30;99.49;99805.16;4994951;28;20464;-69
2022/11/04 03:21:11;;;;;;;13.70;5.23;;;;;;;10.30;98.18;99812.47;4994090;28;20535;-69
2022/11/04 03:23:38;;;;;;;12.00;5.13;;;;;;;10.29;97.24;99806.28;4993085;28;20479;-69
2022/11/04 03:26:12;;;;;;;12.70;5.30;;;;;;;10.28;96.32;99809.31;4994155;28;20632;-69
2022/11/04 03:28:46;;;;;;;15.17;4.80;;;;;;;10.30;96.10;99813.28;4994288;28;20485;-68
2022/11/04 03:31:21;;;;;;;8.50;4.20;;;;;;;10.28;97.30;99837.16;4993996;28;20452;-68
2022/11/04 03:33:50;;;;;;;19.63;5.50;;;;;;;10.31;97.96;99854.66;4993233;28;20480;-68
2022/11/04 03:36:18;;;;;;;9.73;4.53;;;;;;;10.26;99.26;99852.91;4993867;28;20449;-68
2022/11/04 03:38:45;;;;;;;24.27;5.87;;;;;;;10.27;99.83;99857.22;4994739;28;20460;-68
2022/11/04 03:41:17;;;;;;;13.10;4.13;;;;;;;10.29;100.00;99859.63;4993898;28;20445;-68
2022/11/04 03:43:44;;;;;;;8.77;4.40;;;;;;;10.28;100.00;99852.59;4992977;28;20995;-66
2022/11/04 03:46:11;;;;;;;10.23;4.60;;;;;;;10.33;100.00;99857.88;4993840;28;20877;-70
2022/11/04 03:48:39;;;;;;;11.57;5.00;;;;;;;10.39;100.00;99845.75;4993540;28;20480;-69
2022/11/04 03:51:05;;;;;;;9.17;4.60;;;;;;;10.42;100.00;99850.53;4993678;28;20964;-68
2022/11/04 03:53:33;;;;;;;11.60;5.87;;;;;;;10.44;100.00;99845.59;4993026;28;20475;-69
2022/11/04 03:56:14;;;;;;;16.63;5.20;;;;;;;10.40;99.39;99844.63;4993775;28;20449;-68
2022/11/04 03:58:49;;;;;;;13.43;5.40;;;;;;;10.42;97.65;99842.44;4995486;28;20963;-68
2022/11/04 04:01:28;;;;;;;12.30;5.27;;;;;;;10.41;97.21;99840.03;4993691;28;20507;-68
2022/11/04 04:04:02;;;;;;;9.83;5.03;;;;;;;10.41;96.08;99851.66;4992897;28;20468;-69
2022/11/04 04:06:33;;;;;;;9.77;4.23;;;;;;;10.39;95.51;99848.47;4994006;28;20834;-68
2022/11/04 04:09:09;;;;;;;17.90;4.67;;;;;;;10.33;97.17;99845.13;4994181;28;20865;-68
2022/11/04 04:11:41;;;;;;;12.47;5.40;;;;;;;10.36;97.94;99857.25;4993292;28;20987;-69
2022/11/04 04:14:37;;;;;;;11.87;4.50;;;;;;;10.39;98.67;99863.91;4994730;28;20487;-68
2022/11/04 04:17:06;;;;;;;13.17;4.30;;;;;;;10.42;99.38;99874.91;4997042;28;20960;-68
2022/11/04 04:19:35;;;;;;;11.77;5.20;;;;;;;10.42;99.84;99857.88;4999534;28;20484;-68
2022/11/04 04:22:09;;;;;;;13.40;4.10;;;;;;;10.50;99.60;99854.38;4997238;28;20449;-68
2022/11/04 04:27:30;;;;;;;12.60;4.57;;;;;;;10.49;100.00;99852.75;4996910;28;20479;-68
2022/11/04 04:29:58;;;;;;;8.67;4.50;;;;;;;10.50;100.00;99835.44;4998846;28;20448;-68
2022/11/04 04:32:27;;;;;;;12.40;5.00;;;;;;;10.44;100.00;99842.88;4996945;28;20479;-69
2022/11/04 04:35:40;;;;;;;9.37;4.57;;;;;;;10.48;100.00;99840.34;4997289;28;20476;-68
2022/11/04 04:37:44;;;;;;;10.93;4.77;;;;;;;10.55;100.00;99840.69;4995862;28;20461;-68
2022/11/04 04:46:00;;;;;;;9.77;4.37;;;;;;;10.59;100.00;99842.44;4995870;28;20480;-68
2022/11/04 04:48:27;;;;;;;13.37;5.50;;;;;;;10.58;100.00;99842.72;4996826;28;20477;-68
2022/11/04 04:51:00;;;;;;;11.77;5.43;;;;;;;10.59;99.51;99849.75;4992105;28;20979;-68
2022/11/04 04:53:27;;;;;;;11.03;5.50;;;;;;;10.58;98.21;99846.25;4996674;28;20984;-68
2022/11/04 04:55:54;;;;;;;12.70;5.40;;;;;;;10.49;97.92;99847.34;4994000;28;20453;-69
2022/11/04 04:58:20;;;;;;;13.47;6.30;;;;;;;10.55;97.79;99851.50;4996498;28;20786;-68
2022/11/04 05:00:47;;;;;;;12.50;6.50;;;;;;;10.56;96.85;99853.09;4997513;28;20456;-70
2022/11/04 05:03:13;;;;;;;12.30;5.00;;;;;;;10.52;96.34;99846.72;4996483;28;20464;-71
2022/11/04 05:05:41;;;;;;;8.13;4.43;;;;;;;10.50;97.29;99841.63;5034841;23;20582;-71
2022/11/04 05:08:09;;;;;;;10.97;5.00;;;;;;;10.48;98.35;99848.47;5015789;28;20485;-71
2022/11/04 05:10:36;;;;;;;8.60;4.90;;;;;;;10.55;98.54;99843.38;5018165;28;20448;-72
2022/11/04 05:15:46;;;;;;;14.70;5.37;;;;;;;10.63;99.58;99848.00;5014966;28;20562;-72
2022/11/04 05:18:13;;;;;;;10.40;4.53;;;;;;;10.67;99.41;99848.13;5014943;28;20456;-71
2022/11/04 05:20:39;;;;;;;11.63;4.77;;;;;;;10.61;100.00;99859.13;5014284;28;20463;-71
2022/11/04 05:23:07;;;;;;;13.13;4.30;;;;;;;10.65;100.00;99866.63;5015683;28;20474;-70
2022/11/04 05:25:35;;;;;;;11.77;4.83;;;;;;;10.68;100.00;99861.38;5014774;28;20476;-72
2022/11/04 05:28:02;;;;;;;12.30;4.30;;;;;;;10.66;100.00;99874.44;5015434;28;20484;-73
2022/11/04 05:30:29;;;;;;;9.70;4.70;;;;;;;10.69;100.00;99868.38;5013844;28;20531;-72
2022/11/04 05:32:56;;;;;;;11.13;4.70;;;;;;;10.66;100.00;99868.22;5015532;28;20474;-71
2022/11/04 05:35:22;;;;;;;9.87;5.43;;;;;;;10.64;100.00;99873.97;5014619;28;20474;-71
2022/11/04 05:37:49;;;;;;;16.10;6.30;;;;;;;10.63;100.00;99885.91;5014590;28;20482;-71
2022/11/04 05:40:16;;;;;;;13.63;5.37;;;;;;;10.65;100.00;99888.31;5013595;28;20960;-71
2022/11/04 05:42:44;;;;;;;13.40;5.80;;;;;;;10.60;100.00;99881.13;4995625;28;20452;-71
2022/11/04 05:45:10;;;;;;;10.47;6.07;;;;;;;10.58;100.00;99880.63;4998257;28;20476;-72
2022/11/04 05:47:37;;;;;;;16.80;6.43;;;;;;;10.63;100.00;99883.22;5015403;28;20480;-71
2022/11/04 05:50:04;;;;;;;9.40;5.13;;;;;;;10.59;100.00;99884.97;5013553;28;20478;-71
2022/11/04 05:52:30;;;;;;;10.30;5.27;;;;;;;10.60;100.00;99891.97;5014826;28;20959;-71
2022/11/04 05:54:57;;;;;;;17.20;6.63;;;;;;;10.60;100.00;99890.06;5013419;28;20464;-73
2022/11/04 05:57:24;;;;;;;13.20;6.20;;;;;;;10.58;100.00;99900.41;5015206;28;20452;-71
2022/11/04 05:59:52;;;;;;;12.67;6.60;;;;;;;10.63;100.00;99913.00;5014162;28;20444;-73
2022/11/04 06:02:18;;;;;;;13.33;6.10;;;;;;;10.66;100.00;99912.34;4997586;28;20503;-72
2022/11/04 06:04:45;;;;;;;7.80;4.90;;;;;;;10.69;100.00;99900.88;4995035;28;20472;-74
2022/11/04 06:07:12;;;;;;;11.07;5.90;;;;;;;10.69;100.00;99905.50;5014362;28;20825;-73
2022/11/04 06:09:38;;;;;;;12.57;5.23;;;;;;;10.66;100.00;99916.97;5014455;28;20480;-71
2022/11/04 06:12:07;;;;;;;12.00;5.53;;;;;;;10.72;100.00;99908.38;5014077;28;20459;-73
2022/11/04 06:14:33;;;;;;;13.20;6.20;;;;;;;10.70;100.00;99894.34;5012744;28;21050;-71
2022/11/04 06:17:01;;;;;;;15.67;7.53;;;;;;;10.71;100.00;99908.69;5014694;28;21017;-71
2022/11/04 06:19:28;;;;;;;11.13;5.80;;;;;;;10.71;100.00;99924.94;5014063;28;20460;-71
2022/11/04 06:21:54;;;;;;;10.33;5.20;;;;;;;10.69;100.00;99943.44;5014503;28;20447;-71
2022/11/04 06:24:21;;;;;;;13.10;6.33;;;;;;;10.65;100.00;99937.84;5013009;28;20472;-72
2022/11/04 06:26:47;;;;;;;13.00;6.53;;;;;;;10.68;100.00;99937.22;5014461;28;20527;-71
2022/11/04 06:29:14;;;;;;;13.20;7.10;;;;;;;10.65;100.00;99927.00;5013454;28;20484;-72
2022/11/04 06:31:40;;;;;;;12.30;5.90;;;;;;;10.64;100.00;99936.25;5014557;28;20450;-71
2022/11/04 06:34:08;;;;;;;13.43;6.43;;;;;;;10.61;100.00;99936.88;5013517;28;20514;-72
2022/11/04 06:36:35;;;;;;;11.60;5.90;;;;;;;10.60;100.00;99938.78;5013837;28;20440;-71
2022/11/04 06:39:02;;;;;;;13.20;5.70;;;;;;;10.63;100.00;99952.84;5011762;28;20464;-72
2022/11/04 06:41:28;;;;;;;12.37;6.20;;;;;;;10.64;100.00;99957.94;5013404;28;20452;-73
2022/11/04 06:43:55;;;;;;;21.50;5.90;;;;;;;10.61;100.00;99958.56;5014071;28;20440;-71
2022/11/04 06:46:27;;;;;;;18.73;6.90;;;;;;;10.69;100.00;99963.19;5013025;28;20828;-72
2022/11/04 06:48:55;;;;;;;16.37;6.30;;;;;;;10.69;100.00;99965.09;5012282;28;20480;-73
2022/11/04 06:51:24;;;;;;;15.60;6.03;;;;;;;10.70;100.00;99966.69;5013754;28;20447;-72
2022/11/04 06:53:50;;;;;;;15.43;6.23;;;;;;;10.69;100.00;99965.91;5013279;28;20448;-73
2022/11/04 06:56:17;;;;;;;12.73;7.00;;;;;;;10.72;100.00;99973.41;5013326;28;20831;-72
2022/11/04 06:58:44;;;;;;;15.50;6.20;;;;;;;10.68;100.00;99972.44;5014460;28;20825;-71
2022/11/04 07:01:10;;;;;;;18.33;6.67;;;;;;;10.72;100.00;99973.41;5012202;28;20463;-76
2022/11/04 07:03:37;;;;;;;15.73;7.30;;;;;;;10.72;100.00;99975.31;5013834;28;20444;-74
2022/11/04 07:06:08;;;;;;;12.63;6.50;;;;;;;10.74;100.00;99982.00;5012980;28;20484;-73
2022/11/04 07:08:36;;;;;;;13.90;7.00;;;;;;;10.72;100.00;99991.56;5013888;28;20530;-75
2022/11/04 07:11:04;;;;;;;14.13;6.80;;;;;;;10.69;100.00;99998.41;5011931;28;20448;-74
2022/11/04 07:13:30;;;;;;;22.60;7.27;;;;;;;10.68;100.00;99996.81;5013318;28;20836;-74
2022/11/04 07:15:57;;;;;;;12.70;7.13;;;;;;;10.73;100.00;99987.72;5006864;28;20516;-75
2022/11/04 07:18:24;;;;;;;21.20;8.40;;;;;;;10.78;100.00;100001.13;5007565;28;20449;-76
2022/11/04 07:20:50;;;;;;;15.03;6.73;;;;;;;10.79;100.00;99998.09;4994646;28;20528;-75
2022/11/04 07:23:17;;;;;;;15.60;7.40;;;;;;;10.80;100.00;99988.03;5006719;28;20951;-76
2022/11/04 07:25:45;;;;;;;15.63;7.33;;;;;;;10.84;100.00;99973.53;5014045;28;20475;-77
2022/11/04 07:28:11;;;;;;;14.43;6.77;;;;;;;10.93;100.00;99975.47;5012029;28;20480;-70
2022/11/04 07:30:38;;;;;;;18.03;7.13;;;;;;;10.99;100.00;99968.78;5013663;28;20824;-72
2022/11/04 07:33:04;;;;;;;13.30;6.80;;;;;;;11.10;100.00;99970.84;5011024;28;20547;-72
2022/11/04 07:35:31;;;;;;;13.63;5.90;;;;;;;11.19;100.00;99989.81;5012435;28;20998;-73
2022/11/04 07:37:57;;;;;;;20.37;7.83;;;;;;;11.29;100.00;99983.28;5013483;28;20452;-73
2022/11/04 07:40:24;;;;;;;19.70;7.33;;;;;;;11.30;100.00;99969.41;5012854;28;20547;-74
2022/11/04 07:42:52;;;;;;;20.73;8.83;;;;;;;11.39;100.00;99976.75;5011857;28;20483;-75
2022/11/04 07:45:19;;;;;;;14.20;6.50;;;;;;;11.37;100.00;99964.28;5013358;28;20491;-73
2022/11/04 07:47:45;;;;;;;15.60;8.00;;;;;;;11.39;100.00;99976.75;5012904;28;20814;-76
2022/11/04 07:50:13;;;;;;;12.37;7.37;;;;;;;11.39;100.00;99982.97;5016558;28;20479;-77
2022/11/04 07:52:39;;;;;;;14.20;6.67;;;;;;;11.37;100.00;99975.13;5016444;28;20452;-76
2022/11/04 07:55:07;;;;;;;14.93;6.50;;;;;;;11.35;100.00;99971.94;5017039;28;20464;-77
2022/11/04 07:57:33;;;;;;;14.33;7.17;;;;;;;11.39;100.00;99979.44;5016958;28;20456;-76
2022/11/04 08:00:02;;;;;;;15.10;6.13;;;;;;;11.41;100.00;99974.50;5017205;28;20460;-77
2022/11/04 08:02:29;;;;;;;16.27;6.43;;;;;;;11.37;100.00;99964.28;5015440;28;20963;-77
2022/11/04 08:04:55;;;;;;;12.53;7.20;;;;;;;11.41;100.00;99972.56;5015462;28;20491;-74
2022/11/04 08:07:22;;;;;;;13.40;6.57;;;;;;;11.39;100.00;99977.53;5016491;28;20456;-73
2022/11/04 08:09:48;;;;;;;18.33;7.90;;;;;;;11.45;100.00;99972.72;5015295;28;20476;-76
2022/11/04 08:12:15;;;;;;;14.90;7.10;;;;;;;11.48;100.00;99963.97;5010993;28;20460;-77
2022/11/04 08:14:41;;;;;;;12.83;5.90;;;;;;;11.50;100.00;99962.50;4997727;28;20996;-77
2022/11/04 08:17:09;;;;;;;19.50;7.40;;;;;;;11.50;100.00;99969.84;5011990;28;20452;-77
2022/11/04 08:19:36;;;;;;;12.33;6.63;;;;;;;11.51;100.00;99971.44;5016375;28;20452;-77
2022/11/04 08:22:03;;;;;;;13.37;7.07;;;;;;;11.48;100.00;99981.03;5016936;28;20448;-77
2022/11/04 08:24:29;;;;;;;14.30;6.50;;;;;;;11.43;100.00;99972.28;5016241;28;20470;-76
2022/11/04 08:26:56;;;;;;;11.63;5.90;;;;;;;11.48;100.00;99980.25;5002475;28;20441;-76
2022/11/04 08:29:22;;;;;;;11.57;5.50;;;;;;;11.57;100.00;99987.22;4996927;28;20486;-77
2022/11/04 08:31:49;;;;;;;21.87;7.30;;;;;;;11.62;100.00;100002.53;5011655;28;20810;-76
2022/11/04 08:34:17;;;;;;;15.93;7.53;;;;;;;11.62;100.00;100003.34;4997070;28;20512;-76
2022/11/04 08:36:45;;;;;;;15.40;6.93;;;;;;;11.66;100.00;100008.13;5014915;28;20452;-76
2022/11/04 08:39:12;;;;;;;11.77;6.40;;;;;;;11.58;100.00;100007.00;5016479;28;20444;-76
2022/11/04 08:41:44;;;;;;;11.77;5.57;;;;;;;11.54;100.00;100012.28;5012802;28;20452;-76
2022/11/04 08:44:12;;;;;;;18.00;7.47;;;;;;;11.48;100.00;100004.66;4996853;28;20925;-76
2022/11/04 08:46:39;;;;;;;15.30;6.43;;;;;;;11.47;100.00;100005.78;5014345;28;20448;-77
2022/11/04 08:49:06;;;;;;;12.57;7.10;;;;;;;11.52;100.00;100005.59;5016224;28;20506;-76
2022/11/04 08:51:36;;;;;;;14.17;7.53;;;;;;;11.57;100.00;100005.44;5015615;28;20451;-76
2022/11/04 08:54:04;;;;;;;15.43;6.67;;;;;;;11.59;100.00;100014.81;5014581;28;20486;-76
2022/11/04 08:56:33;;;;;;;11.90;5.60;;;;;;;11.65;100.00;100018.19;5014472;28;20469;-76
2022/11/04 08:59:00;;;;;;;14.87;6.80;;;;;;;11.71;100.00;100021.50;5015288;28;20459;-77
2022/11/04 09:01:28;;;;;;;13.70;5.70;;;;;;;11.73;100.00;100013.84;5016135;28;20528;-76
2022/11/04 09:03:55;;;;;;;24.53;7.03;;;;;;;11.77;100.00;100009.34;5015097;28;20463;-76
2022/11/04 09:06:23;;;;;;;16.47;6.10;;;;;;;11.83;100.00;100006.19;5014332;28;20448;-76
2022/11/04 09:08:54;;;;;;;14.63;5.77;;;;;;;11.88;100.00;100004.44;5016014;28;20480;-76
2022/11/04 09:11:21;;;;;;;14.20;6.07;;;;;;;11.88;100.00;100016.09;5015323;28;20858;-76
2022/11/04 09:13:47;;;;;;;13.30;5.97;;;;;;;11.89;100.00;100009.53;5016017;28;20444;-76
2022/11/04 09:16:14;;;;;;;10.63;5.30;;;;;;;11.90;100.00;100007.59;5014238;28;20456;-76
2022/11/04 09:18:41;;;;;;;12.60;6.10;;;;;;;11.94;100.00;100006.63;5015780;28;20459;-76
2022/11/04 09:21:09;;;;;;;11.80;5.23;;;;;;;11.80;100.00;100004.09;5014887;28;20465;-76
2022/11/04 09:23:36;;;;;;;11.07;4.87;;;;;;;11.87;100.00;100009.06;5012264;28;20466;-77
2022/11/04 09:26:07;;;;;;;11.57;5.30;;;;;;;11.90;100.00;100002.97;5014854;28;20987;-76
2022/11/04 09:28:34;;;;;;;13.63;5.87;;;;;;;11.91;100.00;99992.91;5015838;28;20455;-76
2022/11/04 09:31:05;;;;;;;10.80;4.93;;;;;;;11.94;100.00;99992.28;5014907;28;20450;-77
2022/11/04 09:33:32;;;;;;;10.20;4.67;;;;;;;11.90;100.00;99983.19;5014371;28;20527;-76
2022/11/04 09:35:59;;;;;;;15.37;5.70;;;;;;;11.86;100.00;99981.13;5015163;28;20501;-76
2022/11/04 09:38:25;;;;;;;11.83;5.77;;;;;;;11.76;100.00;99965.16;5014460;28;20987;-77
2022/11/04 09:40:52;;;;;;;11.47;4.93;;;;;;;11.81;100.00;99977.75;4995937;28;20536;-77
2022/11/04 09:43:33;;;;;;;11.33;5.30;;;;;;;11.92;100.00;99978.25;4995796;28;20449;-77
2022/11/04 09:46:02;;;;;;;11.57;5.83;;;;;;;11.90;100.00;99975.03;5012652;28;20546;-77
2022/11/04 09:48:34;;;;;;;13.73;5.53;;;;;;;11.92;100.00;99961.97;5014152;28;20454;-77
2022/11/04 09:51:05;;;;;;;15.03;6.17;;;;;;;11.89;100.00;99959.88;4995715;28;20434;-77
2022/11/04 09:53:38;;;;;;;11.67;5.27;;;;;;;11.95;100.00;99961.28;4996459;28;20441;-76
2022/11/04 09:56:12;;;;;;;14.73;6.87;;;;;;;11.93;100.00;99966.25;5015008;28;20468;-76
2022/11/04 09:58:40;;;;;;;14.80;6.70;;;;;;;11.90;100.00;99975.03;5014342;28;20460;-77
2022/11/04 10:01:15;;;;;;;14.43;5.97;;;;;;;11.83;100.00;99978.28;5015115;28;20444;-77
2022/11/04 10:03:58;;;;;;;21.93;6.40;;;;;;;11.84;100.00;99986.06;5013475;28;20457;-77
2022/11/04 10:06:36;;;;;;;10.00;5.17;;;;;;;11.89;100.00;100000.59;4995276;28;20835;-77
2022/11/04 10:09:24;;;;;;;11.80;5.17;;;;;;;11.82;100.00;100009.19;4995335;28;20483;-77
2022/11/04 10:12:02;;;;;;;15.67;6.00;;;;;;;11.84;100.00;100015.94;4994504;28;20500;-76
2022/11/04 10:14:45;;;;;;;12.43;5.97;;;;;;;11.92;100.00;100024.38;5003422;28;20622;-76
2022/11/04 10:17:25;;;;;;;11.67;5.33;;;;;;;11.89;100.00;100028.53;5013374;28;20510;-77
2022/11/04 10:20:02;;;;;;;15.70;5.43;;;;;;;11.91;100.00;100026.31;5014731;28;20478;-76
2022/11/04 10:22:32;;;;;;;10.27;4.73;;;;;;;11.96;100.00;100022.63;5011559;28;20460;-77
2022/11/04 10:25:09;;;;;;;9.37;5.13;;;;;;;11.98;100.00;100025.78;5006311;28;20475;-77
2022/11/04 10:27:38;;;;;;;10.37;4.77;;;;;;;11.89;100.00;100022.31;5013004;28;20451;-76
2022/11/04 10:30:15;;;;;;;11.47;4.50;;;;;;;11.92;100.00;100010.81;5014624;28;20578;-76
2022/11/04 10:32:51;;;;;;;12.97;5.60;;;;;;;11.92;100.00;100011.59;5013823;28;20895;-76
2022/11/04 10:35:26;;;;;;;8.80;4.87;;;;;;;11.87;100.00;100014.50;5014350;28;20526;-75
2022/11/04 10:37:55;;;;;;;10.17;5.33;;;;;;;11.86;100.00;100013.69;5012509;28;20451;-76
2022/11/04 10:40:25;;;;;;;12.57;5.13;;;;;;;11.92;100.00;100027.09;5014233;28;20462;-75
2022/11/04 10:42:52;;;;;;;11.17;4.73;;;;;;;11.97;100.00;100030.41;5013782;28;20464;-75
2022/11/04 10:45:23;;;;;;;13.83;6.60;;;;;;;11.97;100.00;100035.84;5014345;28;20831;-76
2022/11/04 10:47:56;;;;;;;10.90;5.30;;;;;;;11.99;100.00;100038.22;5007964;28;20460;-77
2022/11/04 10:50:30;;;;;;;15.70;5.37;;;;;;;12.00;100.00;100054.22;5011548;28;20482;-75
2022/11/04 10:53:11;;;;;;;10.87;5.07;;;;;;;12.01;100.00;100057.72;5010016;28;20506;-76
2022/11/04 10:55:43;;;;;;;11.47;5.43;;;;;;;11.92;100.00;100062.38;5003225;28;21007;-76
2022/11/04 10:58:18;;;;;;;8.80;4.63;;;;;;;11.92;100.00;100067.81;4994483;28;20445;-76
2022/11/04 11:00:45;;;;;;;10.67;4.57;;;;;;;11.99;100.00;100068.88;4994671;28;20467;-76
2022/11/04 11:03:30;;;;;;;13.63;6.37;;;;;;;12.00;100.00;100061.56;4994413;28;20441;-77
2022/11/04 11:06:22;;;;;;;10.23;4.33;;;;;;;11.94;100.00;100057.41;4997059;28;20516;-75
2022/11/04 11:08:49;;;;;;;10.40;4.60;;;;;;;11.97;100.00;100051.34;4994353;28;20421;-76
2022/11/04 11:11:16;;;;;;;10.47;5.77;;;;;;;11.88;100.00;100053.28;4994169;28;20465;-76
2022/11/04 11:13:45;;;;;;;9.63;5.00;;;;;;;11.90;100.00;100062.69;4994198;28;20510;-74
2022/11/04 11:16:19;;;;;;;13.87;4.93;;;;;;;11.94;100.00;100066.34;4997383;28;20460;-76
2022/11/04 11:19:13;;;;;;;11.23;4.33;;;;;;;11.95;100.00;100069.84;5000244;28;20460;-76
2022/11/04 11:21:43;;;;;;;8.70;4.60;;;;;;;11.93;100.00;100069.38;5013821;28;20858;-77
2022/11/04 11:24:15;;;;;;;10.97;5.27;;;;;;;11.89;100.00;100079.28;5013076;28;20549;-76
2022/11/04 11:26:47;;;;;;;11.63;4.70;;;;;;;11.91;100.00;100074.31;5013439;28;20424;-76
2022/11/04 11:29:20;;;;;;;13.07;5.07;;;;;;;11.91;100.00;100079.75;5007696;28;20479;-76
2022/11/04 11:31:50;;;;;;;9.50;4.57;;;;;;;11.86;100.00;100099.72;5001543;28;20507;-76
2022/11/04 11:34:25;;;;;;;11.60;4.70;;;;;;;11.84;100.00;100099.25;5014885;28;20555;-76
2022/11/04 11:36:52;;;;;;;11.73;5.00;;;;;;;11.83;100.00;100093.03;4994149;28;20487;-75
2022/11/04 11:39:21;;;;;;;12.60;4.57;;;;;;;11.83;100.00;100081.38;4993790;28;20971;-77
2022/11/04 11:41:54;;;;;;;10.30;4.43;;;;;;;11.78;100.00;100090.47;4997395;28;20475;-76
2022/11/04 11:44:26;;;;;;;9.50;4.57;;;;;;;11.77;100.00;100105.13;4993655;28;20487;-76
2022/11/04 11:46:56;;;;;;;9.50;4.37;;;;;;;11.82;100.00;100109.59;4993871;28;20440;-75
2022/11/04 11:49:27;;;;;;;9.90;5.43;;;;;;;11.85;100.00;100098.13;5005440;28;20476;-76
2022/11/04 11:51:53;;;;;;;9.27;3.93;;;;;;;11.90;100.00;100099.88;5006179;28;20464;-76
2022/11/04 11:54:28;;;;;;;9.77;4.77;;;;;;;11.96;100.00;100093.97;4993759;28;20461;-76
2022/11/04 11:56:56;;;;;;;11.23;4.63;;;;;;;11.98;100.00;100093.66;4993827;28;20830;-76
2022/11/04 11:59:28;;;;;;;9.23;4.50;;;;;;;12.00;100.00;100092.22;4993832;28;20448;-77
2022/11/04 12:02:11;;;;;;;10.23;5.20;;;;;;;11.99;100.00;100084.38;4998683;28;20464;-75